createdAt,value
2022-11-25T00:01:43.208Z,3.65
2022-11-25T00:04:15.694Z,5.70
2022-11-25T00:06:48.244Z,5.82
2022-11-25T00:09:20.845Z,6.18
2022-11-25T00:11:53.429Z,5.13
2022-11-25T00:14:26.025Z,5.38
2022-11-25T00:16:58.541Z,10.65
2022-11-25T00:19:31.381Z,6.45
2022-11-25T00:22:03.860Z,8.18
2022-11-25T00:24:36.680Z,7.47
2022-11-25T00:27:09.608Z,8.52
2022-11-25T00:29:44.191Z,7.25
2022-11-25T00:32:16.717Z,8.73
2022-11-25T00:34:49.321Z,6.65
2022-11-25T00:37:21.875Z,9.43
2022-11-25T00:39:54.452Z,5.82
2022-11-25T00:42:42.149Z,6.55
2022-11-25T00:45:14.693Z,7.18
2022-11-25T00:47:47.337Z,5.68
2022-11-25T00:50:20.059Z,7.15
2022-11-25T00:52:52.674Z,6.82
2022-11-25T00:55:25.799Z,9.10
2022-11-25T00:57:58.379Z,8.30
2022-11-25T01:00:31.437Z,7.70
2022-11-25T01:03:03.938Z,6.32
2022-11-25T01:05:38.615Z,8.57
2022-11-25T01:08:11.108Z,6.75
2022-11-25T01:10:43.816Z,7.13
2022-11-25T01:13:16.539Z,10.05
2022-11-25T01:15:49.067Z,8.98
2022-11-25T01:18:21.636Z,5.38
2022-11-25T01:20:54.098Z,6.70
2022-11-25T01:23:28.876Z,8.10
2022-11-25T01:26:03.431Z,7.20
2022-11-25T01:28:35.980Z,6.82
2022-11-25T01:31:14.801Z,7.97
2022-11-25T01:33:52.646Z,7.80
2022-11-25T01:36:25.879Z,8.63
2022-11-25T01:39:00.737Z,8.63
2022-11-25T01:41:35.125Z,10.60
2022-11-25T01:44:17.927Z,12.10
2022-11-25T01:47:03.871Z,10.35
2022-11-25T01:49:44.478Z,9.77
2022-11-25T01:52:36.873Z,10.82
2022-11-25T01:55:17.979Z,11.70
2022-11-25T01:57:58.968Z,9.77
2022-11-25T02:00:32.305Z,8.85
2022-11-25T02:03:05.767Z,9.43
2022-11-25T02:05:56.178Z,9.65
2022-11-25T02:08:30.786Z,8.95
2022-11-25T02:11:05.239Z,9.90
2022-11-25T02:13:39.027Z,7.05
2022-11-25T02:16:12.784Z,10.23
2022-11-25T02:18:45.701Z,11.88
2022-11-25T02:21:26.296Z,9.30
2022-11-25T02:24:05.836Z,9.57
2022-11-25T02:26:39.226Z,11.48
2022-11-25T02:31:51.728Z,10.57
2022-11-25T02:34:24.539Z,8.23
2022-11-25T02:36:57.173Z,8.70
2022-11-25T02:39:30.196Z,10.02
2022-11-25T02:42:02.925Z,9.02
2022-11-25T02:44:35.774Z,11.00
2022-11-25T02:47:08.590Z,8.43
2022-11-25T02:49:43.940Z,8.90
2022-11-25T02:52:16.740Z,9.40
2022-11-25T02:54:49.684Z,9.70
2022-11-25T02:57:22.190Z,10.82
2022-11-25T02:59:54.713Z,10.90
2022-11-25T03:02:27.246Z,11.70
2022-11-25T03:04:59.765Z,9.32
2022-11-25T03:07:32.324Z,11.13
2022-11-25T03:10:06.800Z,10.55
2022-11-25T03:12:40.541Z,9.43
2022-11-25T03:15:13.571Z,10.98
2022-11-25T03:17:46.390Z,13.10
2022-11-25T03:20:19.415Z,12.50
2022-11-25T03:22:53.609Z,7.43
2022-11-25T03:25:26.204Z,10.63
2022-11-25T03:28:00.595Z,13.60
2022-11-25T03:30:33.474Z,13.60
2022-11-25T03:33:07.735Z,11.98
2022-11-25T03:35:40.495Z,14.27
2022-11-25T03:38:16.350Z,12.45
2022-11-25T03:40:49.628Z,12.02
2022-11-25T03:43:23.155Z,11.25
2022-11-25T03:45:57.398Z,11.13
2022-11-25T03:48:30.050Z,10.10
2022-11-25T03:51:03.171Z,11.90
2022-11-25T03:53:36.396Z,9.23
2022-11-25T03:56:11.879Z,9.60
2022-11-25T03:58:44.705Z,9.48
2022-11-25T04:01:18.743Z,10.20
2022-11-25T04:03:51.816Z,11.25
2022-11-25T04:06:24.418Z,10.77
2022-11-25T04:11:48.564Z,9.82
2022-11-25T04:14:21.724Z,11.23
2022-11-25T04:16:54.460Z,11.63
2022-11-25T04:19:27.142Z,14.65
2022-11-25T04:21:59.910Z,15.77
2022-11-25T04:24:34.052Z,14.10
2022-11-25T04:27:07.145Z,13.20
2022-11-25T04:29:41.126Z,11.60
2022-11-25T04:32:15.043Z,10.98
2022-11-25T04:34:47.647Z,12.00
2022-11-25T04:37:20.528Z,13.73
2022-11-25T04:39:53.854Z,12.10
2022-11-25T04:42:34.855Z,14.45
2022-11-25T04:45:33.397Z,14.20
2022-11-25T04:48:06.217Z,14.65
2022-11-25T04:50:39.989Z,15.00
2022-11-25T04:53:17.152Z,15.90
2022-11-25T04:55:49.653Z,15.60
2022-11-25T04:58:42.160Z,20.60
2022-11-25T05:01:15.011Z,18.95
2022-11-25T05:03:57.353Z,18.40
2022-11-25T05:06:33.557Z,18.55
2022-11-25T05:09:07.100Z,22.52
2022-11-25T05:11:42.447Z,23.23
2022-11-25T05:14:15.402Z,19.80
2022-11-25T05:16:47.948Z,21.20
2022-11-25T05:19:20.717Z,21.65
2022-11-25T05:21:54.140Z,24.35
2022-11-25T05:24:26.838Z,21.00
2022-11-25T05:26:59.664Z,22.70
2022-11-25T05:29:32.403Z,20.65
2022-11-25T05:32:06.564Z,23.73
2022-11-25T05:34:39.544Z,24.63
2022-11-25T05:37:17.666Z,24.30
2022-11-25T05:42:32.303Z,26.08
2022-11-25T05:45:09.300Z,25.25
2022-11-25T05:47:42.042Z,25.80
2022-11-25T05:50:16.359Z,23.52
2022-11-25T05:53:09.302Z,23.55
2022-11-25T05:55:41.946Z,24.40
2022-11-25T05:58:23.991Z,24.60
2022-11-25T06:01:00.268Z,26.77
2022-11-25T06:03:33.779Z,26.52
2022-11-25T06:06:08.330Z,26.77
2022-11-25T06:08:41.148Z,22.38
2022-11-25T06:11:18.166Z,23.88
2022-11-25T06:13:50.911Z,23.85
2022-11-25T06:16:24.451Z,25.48
2022-11-25T06:19:08.253Z,25.50
2022-11-25T06:21:42.351Z,18.65
2022-11-25T06:24:14.866Z,27.73
2022-11-25T06:26:49.877Z,25.13
2022-11-25T06:29:22.639Z,25.60
2022-11-25T06:31:56.706Z,25.00
2022-11-25T06:34:43.199Z,28.58
2022-11-25T06:37:27.722Z,38.10
2022-11-25T06:40:00.283Z,32.85
2022-11-25T06:42:33.180Z,36.63
2022-11-25T06:45:07.118Z,34.53
2022-11-25T06:47:39.975Z,36.33
2022-11-25T06:50:12.602Z,37.15
2022-11-25T06:52:45.303Z,66.65
2022-11-25T06:55:18.063Z,47.15
2022-11-25T06:57:53.299Z,35.67
2022-11-25T07:00:28.474Z,29.90
2022-11-25T07:03:57.330Z,32.30
2022-11-25T07:07:44.417Z,30.33
2022-11-25T07:11:31.769Z,27.07
2022-11-25T07:15:18.912Z,27.95
2022-11-25T07:18:10.197Z,20.63
2022-11-25T07:20:42.907Z,24.45
2022-11-25T07:23:15.780Z,24.48
2022-11-25T07:25:48.397Z,29.27
2022-11-25T07:28:21.124Z,28.92
2022-11-25T07:33:47.408Z,26.60
2022-11-25T07:36:20.479Z,29.35
2022-11-25T07:38:53.406Z,26.15
2022-11-25T07:41:27.840Z,25.52
2022-11-25T07:44:03.443Z,27.98
2022-11-25T07:46:44.405Z,27.90
2022-11-25T07:49:21.134Z,33.92
2022-11-25T07:51:56.912Z,28.55
2022-11-25T07:54:29.704Z,30.13
2022-11-25T07:57:02.294Z,29.65
2022-11-25T07:59:36.537Z,29.10
2022-11-25T08:02:10.855Z,27.85
2022-11-25T08:04:43.690Z,24.23
2022-11-25T08:07:16.337Z,28.10
2022-11-25T08:09:49.366Z,29.27
2022-11-25T08:12:22.096Z,31.67
2022-11-25T08:14:54.764Z,30.13
2022-11-25T08:17:27.409Z,20.38
2022-11-25T08:20:00.703Z,23.13
2022-11-25T08:22:33.513Z,24.08
2022-11-25T08:25:06.711Z,19.67
2022-11-25T08:27:39.357Z,21.98
2022-11-25T08:30:13.545Z,21.42
2022-11-25T08:32:46.101Z,21.35
2022-11-25T08:35:19.440Z,18.65
2022-11-25T08:37:52.477Z,21.17
2022-11-25T08:40:25.192Z,25.27
2022-11-25T08:42:58.130Z,28.45
2022-11-25T08:45:31.334Z,28.98
2022-11-25T08:48:04.129Z,27.00
2022-11-25T08:50:37.262Z,25.55
2022-11-25T08:53:10.133Z,25.75
2022-11-25T08:55:42.919Z,25.52
2022-11-25T08:58:15.607Z,23.73
2022-11-25T09:00:48.598Z,28.05
2022-11-25T09:03:22.965Z,24.48
2022-11-25T09:05:55.853Z,25.10
2022-11-25T09:08:29.228Z,25.85
2022-11-25T09:11:02.230Z,27.35
2022-11-25T09:13:35.662Z,24.45
2022-11-25T09:16:09.786Z,24.90
2022-11-25T09:18:42.720Z,24.55
2022-11-25T09:21:17.995Z,20.45
2022-11-25T09:26:28.874Z,18.05
2022-11-25T09:29:01.542Z,17.85
2022-11-25T09:31:34.852Z,20.17
2022-11-25T09:34:09.081Z,19.85
2022-11-25T09:36:41.770Z,21.75
2022-11-25T09:39:14.410Z,24.58
2022-11-25T09:42:20.878Z,26.98
2022-11-25T09:47:58.865Z,22.63
2022-11-25T09:50:42.537Z,24.58
2022-11-25T09:53:34.225Z,22.98
2022-11-25T09:56:19.590Z,21.23
2022-11-25T09:59:00.523Z,20.15
2022-11-25T10:01:49.687Z,20.33
2022-11-25T10:04:28.786Z,20.10
2022-11-25T10:07:04.447Z,18.08
2022-11-25T10:09:37.950Z,18.08
2022-11-25T10:12:26.457Z,23.23
2022-11-25T10:15:03.625Z,24.92
2022-11-25T10:18:18.393Z,26.67
2022-11-25T10:20:53.318Z,25.88
2022-11-25T10:23:32.656Z,23.95
2022-11-25T10:26:22.356Z,29.80
2022-11-25T10:29:18.595Z,26.40
2022-11-25T10:31:57.856Z,18.67
2022-11-25T10:34:42.523Z,19.95
2022-11-25T10:37:29.416Z,18.52
2022-11-25T10:40:02.283Z,22.13
2022-11-25T10:42:37.624Z,20.75
2022-11-25T10:47:59.361Z,21.58
2022-11-25T10:50:39.166Z,18.20
2022-11-25T10:53:18.858Z,18.42
2022-11-25T10:56:11.908Z,20.13
2022-11-25T10:58:45.019Z,24.63
2022-11-25T11:01:21.001Z,22.48
2022-11-25T11:04:21.827Z,23.13
2022-11-25T11:07:09.299Z,23.55
2022-11-25T11:09:43.460Z,22.60
2022-11-25T11:12:22.160Z,22.75
2022-11-25T11:15:15.362Z,18.58
2022-11-25T11:17:48.695Z,19.90
2022-11-25T11:20:29.685Z,21.40
2022-11-25T11:23:10.796Z,20.95
2022-11-25T11:26:00.683Z,32.08
2022-11-25T11:28:37.350Z,27.40
2022-11-25T11:31:19.824Z,40.67
2022-11-25T11:33:54.435Z,36.88
2022-11-25T11:36:30.101Z,38.67
2022-11-25T11:39:19.638Z,39.95
2022-11-25T11:42:14.510Z,39.35
2022-11-25T11:45:13.124Z,37.95
2022-11-25T11:48:19.050Z,42.08
2022-11-25T11:51:03.343Z,39.35
2022-11-25T11:53:53.837Z,33.72
2022-11-25T11:56:44.594Z,36.90
2022-11-25T11:59:49.822Z,37.40
2022-11-25T12:02:30.378Z,36.22
2022-11-25T12:05:19.518Z,40.00
2022-11-25T12:07:56.002Z,34.70
2022-11-25T12:10:36.992Z,36.58
2022-11-25T12:13:23.538Z,36.03
2022-11-25T12:16:02.371Z,33.22
2022-11-25T12:18:56.157Z,37.70
2022-11-25T12:21:53.264Z,33.60
2022-11-25T12:27:18.638Z,36.42
2022-11-25T12:29:53.551Z,37.45
2022-11-25T12:32:42.840Z,34.38
2022-11-25T12:35:18.784Z,35.92
2022-11-25T12:38:03.258Z,37.50
2022-11-25T12:40:57.567Z,36.95
2022-11-25T12:43:50.750Z,38.08
2022-11-25T12:46:37.018Z,36.40
2022-11-25T12:49:18.502Z,40.35
2022-11-25T12:52:20.276Z,39.45
2022-11-25T12:55:06.307Z,40.72
2022-11-25T12:57:49.149Z,39.65
2022-11-25T13:00:44.239Z,42.35
2022-11-25T13:03:42.332Z,51.28
2022-11-25T13:06:24.777Z,59.60
2022-11-25T13:09:02.200Z,62.10
2022-11-25T13:11:51.840Z,66.85
2022-11-25T13:14:30.832Z,60.13
2022-11-25T13:17:04.626Z,69.35
2022-11-25T13:19:37.921Z,72.22
2022-11-25T13:22:30.849Z,74.07
2022-11-25T13:25:03.697Z,68.47
2022-11-25T13:27:40.638Z,67.05
2022-11-25T13:30:33.123Z,76.57
2022-11-25T13:33:12.435Z,70.88
2022-11-25T13:35:55.910Z,70.45
2022-11-25T13:38:38.319Z,72.43
2022-11-25T13:41:11.780Z,69.10
2022-11-25T13:44:14.240Z,71.03
2022-11-25T13:46:51.986Z,83.45
2022-11-25T13:49:36.984Z,80.15
2022-11-25T13:52:13.828Z,78.07
2022-11-25T13:54:51.359Z,83.20
2022-11-25T13:57:27.166Z,88.05
2022-11-25T14:00:07.241Z,90.60
2022-11-25T14:02:47.503Z,92.85
2022-11-25T14:07:54.902Z,86.38
2022-11-25T14:10:46.115Z,99.82
2022-11-25T14:13:22.807Z,88.72
2022-11-25T14:16:26.531Z,91.82
2022-11-25T14:19:49.474Z,92.45
2022-11-25T14:22:40.282Z,93.63
2022-11-25T14:25:31.223Z,89.10
2022-11-25T14:28:14.663Z,91.85
2022-11-25T14:30:53.693Z,92.93
2022-11-25T14:33:35.793Z,92.82
2022-11-25T14:36:14.844Z,90.93
2022-11-25T14:38:55.383Z,84.35
2022-11-25T14:41:37.614Z,99.05
2022-11-25T14:44:18.938Z,97.15
2022-11-25T14:46:54.952Z,97.75
2022-11-25T14:50:05.764Z,109.18
2022-11-25T14:52:47.998Z,103.63
2022-11-25T14:55:30.989Z,106.30
2022-11-25T14:58:04.237Z,99.35
2022-11-25T15:00:53.429Z,100.03
2022-11-25T15:03:26.249Z,103.88
2022-11-25T15:06:04.449Z,98.45
2022-11-25T15:08:44.358Z,101.88
2022-11-25T15:11:23.563Z,98.75
2022-11-25T15:14:03.796Z,98.72
2022-11-25T15:16:41.528Z,95.93
2022-11-25T15:19:18.836Z,95.32
2022-11-25T15:24:55.804Z,94.47
2022-11-25T15:27:51.096Z,100.45
2022-11-25T15:30:27.996Z,94.43
2022-11-25T15:33:03.799Z,100.57
2022-11-25T15:35:36.526Z,96.53
2022-11-25T15:38:42.023Z,103.45
2022-11-25T15:41:17.634Z,103.63
2022-11-25T15:43:56.100Z,106.18
2022-11-25T15:46:34.312Z,98.40
2022-11-25T15:49:10.787Z,108.28
2022-11-25T15:51:49.332Z,103.55
2022-11-25T15:54:28.580Z,101.80
2022-11-25T15:57:12.318Z,107.97
2022-11-25T15:59:52.561Z,111.22
2022-11-25T16:02:42.908Z,106.38
2022-11-25T16:05:18.577Z,109.75
2022-11-25T16:07:52.068Z,99.53
2022-11-25T16:10:33.069Z,110.30
2022-11-25T16:13:23.215Z,106.53
2022-11-25T16:16:12.778Z,113.25
2022-11-25T16:19:09.197Z,120.97
2022-11-25T16:21:47.859Z,123.80
2022-11-25T16:24:22.662Z,114.88
2022-11-25T16:27:01.109Z,112.70
2022-11-25T16:29:39.462Z,112.18
2022-11-25T16:32:20.571Z,111.78
2022-11-25T16:34:56.994Z,111.47
2022-11-25T16:37:29.787Z,111.28
2022-11-25T16:40:02.297Z,109.05
2022-11-25T16:42:35.906Z,112.43
2022-11-25T16:45:26.473Z,111.28
2022-11-25T16:47:59.182Z,111.55
2022-11-25T16:50:31.951Z,109.90
2022-11-25T16:53:04.660Z,117.18
2022-11-25T16:55:40.832Z,111.68
2022-11-25T16:58:23.052Z,111.80
2022-11-25T17:01:00.096Z,115.95
2022-11-25T17:03:32.807Z,107.05
2022-11-25T17:06:27.581Z,125.45
2022-11-25T17:09:01.391Z,118.53
2022-11-25T17:11:46.142Z,112.45
2022-11-25T17:14:27.303Z,109.88
2022-11-25T17:17:01.193Z,110.65
2022-11-25T17:19:35.271Z,104.88
2022-11-25T17:22:19.052Z,109.60
2022-11-25T17:24:51.815Z,109.40
2022-11-25T17:27:32.248Z,107.30
2022-11-25T17:30:07.728Z,123.95
2022-11-25T17:32:40.549Z,130.13
2022-11-25T17:35:19.153Z,223.80
2022-11-25T17:37:51.798Z,129.70
2022-11-25T17:40:25.200Z,110.70
2022-11-25T17:42:58.001Z,118.45
2022-11-25T17:45:30.800Z,117.35
2022-11-25T17:48:10.832Z,121.15
2022-11-25T17:50:47.688Z,118.15
2022-11-25T17:53:21.332Z,121.35
2022-11-25T17:55:54.495Z,110.57
2022-11-25T17:58:29.486Z,121.50
2022-11-25T18:01:05.661Z,121.35
2022-11-25T18:03:38.974Z,119.55
2022-11-25T18:06:12.474Z,116.82
2022-11-25T18:08:44.893Z,121.70
2022-11-25T18:11:20.971Z,132.82
2022-11-25T18:13:53.794Z,126.53
2022-11-25T18:16:29.971Z,128.80
2022-11-25T18:19:02.609Z,126.97
2022-11-25T18:21:35.534Z,133.57
2022-11-25T18:24:08.743Z,141.35
2022-11-25T18:26:47.571Z,138.60
2022-11-25T18:29:28.189Z,135.48
2022-11-25T18:32:01.022Z,132.70
2022-11-25T18:34:33.564Z,128.77
2022-11-25T18:37:06.249Z,129.13
2022-11-25T18:39:39.188Z,129.25
2022-11-25T18:42:24.535Z,131.63
2022-11-25T18:44:57.542Z,137.73
2022-11-25T18:47:30.248Z,126.32
2022-11-25T18:50:02.806Z,123.57
2022-11-25T18:52:35.349Z,128.25
2022-11-25T18:55:08.813Z,128.13
2022-11-25T18:57:43.015Z,122.50
2022-11-25T19:00:36.239Z,128.98
2022-11-25T19:03:19.189Z,123.47
2022-11-25T19:05:54.659Z,125.35
2022-11-25T19:08:27.585Z,119.95
2022-11-25T19:11:00.476Z,120.53
2022-11-25T19:13:36.997Z,117.35
2022-11-25T19:16:14.174Z,120.93
2022-11-25T19:18:48.260Z,116.32
2022-11-25T19:21:21.963Z,89.87
2022-11-25T19:23:55.191Z,115.90
2022-11-25T19:26:31.602Z,118.53
2022-11-25T19:29:08.304Z,124.28
2022-11-25T19:31:41.372Z,120.80
2022-11-25T19:34:26.819Z,115.20
2022-11-25T19:36:59.439Z,122.45
2022-11-25T19:39:36.096Z,125.22
2022-11-25T19:42:09.882Z,114.20
2022-11-25T19:44:43.442Z,160.02
2022-11-25T19:47:25.461Z,211.55
2022-11-25T19:50:01.765Z,201.65
2022-11-25T19:52:37.978Z,152.27
2022-11-25T19:55:19.677Z,130.93
2022-11-25T19:57:53.185Z,136.60
2022-11-25T20:00:26.588Z,113.75
2022-11-25T20:03:00.380Z,111.50
2022-11-25T20:05:37.214Z,114.47
2022-11-25T20:08:19.001Z,110.20
2022-11-25T20:10:51.984Z,109.10
2022-11-25T20:13:26.319Z,110.78
2022-11-25T20:15:59.760Z,107.72
2022-11-25T20:18:32.612Z,106.97
2022-11-25T20:21:06.593Z,114.68
2022-11-25T20:23:44.336Z,113.45
2022-11-25T20:26:27.262Z,107.97
2022-11-25T20:28:59.889Z,110.72
2022-11-25T20:31:32.856Z,109.88
2022-11-25T20:34:05.615Z,176.68
2022-11-25T20:36:40.462Z,145.85
2022-11-25T20:39:19.314Z,126.88
2022-11-25T20:41:53.175Z,120.28
2022-11-25T20:44:28.275Z,116.85
2022-11-25T20:47:00.827Z,145.82
2022-11-25T20:49:34.524Z,137.32
2022-11-25T20:52:07.337Z,130.57
2022-11-25T20:54:40.103Z,139.55
2022-11-25T20:57:13.119Z,122.05
2022-11-25T20:59:46.032Z,116.07
2022-11-25T21:02:22.008Z,116.03
2022-11-25T21:04:55.076Z,112.93
2022-11-25T21:07:28.018Z,120.15
2022-11-25T21:10:00.746Z,131.18
2022-11-25T21:12:33.414Z,120.85
2022-11-25T21:15:14.276Z,118.40
2022-11-25T21:17:46.825Z,116.90
2022-11-25T21:20:20.348Z,123.15
2022-11-25T21:22:58.276Z,141.45
2022-11-25T21:25:30.893Z,140.32
2022-11-25T21:28:04.296Z,143.05
2022-11-25T21:30:40.334Z,169.30
2022-11-25T21:33:13.796Z,147.52
2022-11-25T21:35:48.367Z,132.90
2022-11-25T21:38:24.635Z,128.15
2022-11-25T21:40:59.121Z,126.97
2022-11-25T21:43:34.511Z,126.75
2022-11-25T21:46:13.430Z,123.70
2022-11-25T21:48:46.384Z,129.55
2022-11-25T21:51:22.068Z,131.73
2022-11-25T21:53:54.970Z,136.18
2022-11-25T21:56:34.706Z,128.50
2022-11-25T21:59:14.587Z,123.63
2022-11-25T22:01:49.187Z,125.85
2022-11-25T22:04:22.833Z,122.05
2022-11-25T22:06:55.413Z,122.18
2022-11-25T22:09:28.077Z,112.22
2022-11-25T22:12:01.765Z,124.18
2022-11-25T22:14:38.200Z,118.03
2022-11-25T22:17:17.843Z,109.70
2022-11-25T22:19:50.454Z,110.90
2022-11-25T22:22:23.219Z,113.18
2022-11-25T22:24:55.811Z,117.90
2022-11-25T22:27:36.384Z,112.07
2022-11-25T22:30:16.728Z,109.85
2022-11-25T22:32:55.494Z,109.25
2022-11-25T22:35:28.658Z,114.45
2022-11-25T22:38:01.263Z,110.40
2022-11-25T22:40:35.135Z,109.45
2022-11-25T22:43:17.129Z,105.97
2022-11-25T22:45:50.667Z,110.50
2022-11-25T22:48:39.210Z,122.30
2022-11-25T22:51:18.867Z,124.18
2022-11-25T22:53:51.717Z,120.22
2022-11-25T22:56:24.388Z,112.05
2022-11-25T22:59:00.602Z,110.18
2022-11-25T23:01:33.256Z,102.38
2022-11-25T23:04:06.893Z,102.22
2022-11-25T23:06:39.462Z,107.30
2022-11-25T23:09:18.887Z,99.88
2022-11-25T23:11:51.420Z,98.68
2022-11-25T23:14:23.902Z,99.40
2022-11-25T23:16:56.477Z,102.40
2022-11-25T23:19:29.121Z,102.63
2022-11-25T23:22:01.715Z,97.00
2022-11-25T23:24:34.400Z,98.60
2022-11-25T23:27:07.163Z,98.07
2022-11-25T23:29:39.923Z,96.40
2022-11-25T23:32:19.633Z,93.22
2022-11-25T23:34:52.407Z,100.28
2022-11-25T23:37:24.989Z,97.57
2022-11-25T23:39:57.602Z,95.95
2022-11-25T23:42:30.955Z,90.95
2022-11-25T23:45:06.179Z,86.68
2022-11-25T23:50:25.154Z,85.93
2022-11-25T23:53:03.893Z,83.30
2022-11-25T23:55:38.831Z,84.88
2022-11-25T23:58:16.736Z,87.03
